Terminal Aerodrome Forecast
Issued by NWS Portland, ME

Home | Current Version | Previous Version | Text Only | Print | Product List | Glossary On
Versions: 1 2 3 4 5 6 7 8 9 10 11 12 13 14 15 16 17 18
000
FTUS41 KGYX 250536
TAFCON
TAF
KCON 250536Z 2506/2606 00000KT P6SM SCT120 BKN200
     FM251500 VRB03KT P6SM SCT100 BKN200
     FM251800 18007KT P6SM SCT100 BKN200
     FM252200 VRB04KT P6SM -SHRA SCT050 BKN070 OVC100
     FM260200 VRB03KT 5SM BR SCT080 BKN200=

USA.gov is the U.S. government's official web portal to all federal, state and local government web resources and services.